createdAt,value
2022-10-03T00:03:37.612Z,78.52
2022-10-03T00:09:37.669Z,78.17
2022-10-03T00:15:37.679Z,79.67
2022-10-03T00:21:37.948Z,78.59
2022-10-03T00:27:37.711Z,80.35
2022-10-03T00:33:37.675Z,83.75
2022-10-03T00:39:37.687Z,82.48
2022-10-03T00:49:15.403Z,83.00
2022-10-03T00:55:35.607Z,80.71
2022-10-03T01:01:35.734Z,79.86
2022-10-03T01:07:35.753Z,78.63
2022-10-03T01:13:35.770Z,78.41
2022-10-03T01:19:35.834Z,79.27
2022-10-03T01:25:35.755Z,82.19
2022-10-03T01:31:35.861Z,79.44
2022-10-03T01:37:35.813Z,82.30
2022-10-03T01:43:35.851Z,78.28
2022-10-03T01:49:35.832Z,80.83
2022-10-03T01:55:35.812Z,79.66
2022-10-03T02:01:36.037Z,78.57
2022-10-03T02:07:35.848Z,77.10
2022-10-03T02:13:35.835Z,77.23
2022-10-03T02:22:16.739Z,79.98
2022-10-03T02:28:36.904Z,83.99
2022-10-03T02:34:36.915Z,83.97
2022-10-03T02:40:36.912Z,82.54
2022-10-03T02:46:36.979Z,85.12
2022-10-03T02:52:36.995Z,86.64
2022-10-03T02:58:37.012Z,86.90
2022-10-03T03:04:37.016Z,84.10
2022-10-03T03:10:37.039Z,82.21
2022-10-03T03:16:37.064Z,81.48
2022-10-03T03:22:37.005Z,79.23
2022-10-03T03:28:37.027Z,77.82
2022-10-03T03:34:37.012Z,79.33
2022-10-03T03:40:37.003Z,78.64
2022-10-03T03:46:37.008Z,79.36
2022-10-03T03:52:37.012Z,77.89
2022-10-03T03:58:37.021Z,78.14
2022-10-03T04:04:37.018Z,78.56
2022-10-03T04:10:37.046Z,77.63
2022-10-03T04:16:37.068Z,79.46
2022-10-03T04:22:37.020Z,79.87
2022-10-03T04:28:37.004Z,80.69
2022-10-03T04:34:36.997Z,81.36
2022-10-03T04:40:36.992Z,80.76
2022-10-03T04:46:36.986Z,78.33
2022-10-03T04:52:37.007Z,77.53
2022-10-03T04:58:37.006Z,79.35
2022-10-03T05:04:37.024Z,78.74
2022-10-03T05:10:37.057Z,77.71
2022-10-03T05:16:37.068Z,80.06
2022-10-03T05:22:37.010Z,79.09
2022-10-03T05:28:37.035Z,79.59
2022-10-03T05:34:37.029Z,79.36
2022-10-03T05:40:37.026Z,81.56
2022-10-03T05:46:37.026Z,80.16
2022-10-03T05:52:37.033Z,79.93
2022-10-03T05:58:46.968Z,82.05
2022-10-03T06:04:47.052Z,84.52
2022-10-03T06:10:47.052Z,81.64
2022-10-03T06:16:47.045Z,81.53
2022-10-03T06:22:47.063Z,84.37
2022-10-03T06:28:47.000Z,83.09
2022-10-03T06:34:47.017Z,83.00
2022-10-03T06:40:47.002Z,81.34
2022-10-03T06:46:46.996Z,81.75
2022-10-03T06:52:47.015Z,80.56
2022-10-03T06:58:47.046Z,80.10
2022-10-03T07:04:47.267Z,78.89
2022-10-03T07:10:47.024Z,78.14
2022-10-03T07:16:47.094Z,68.43
2022-10-03T07:22:47.039Z,72.39
2022-10-03T07:28:47.056Z,69.57
2022-10-03T07:34:47.024Z,68.28
2022-10-03T07:40:47.029Z,71.14
2022-10-03T07:46:47.061Z,75.91
2022-10-03T07:52:47.048Z,62.28
2022-10-03T08:10:47.023Z,59.96
2022-10-03T08:16:47.025Z,67.02
2022-10-03T08:22:47.012Z,66.25
2022-10-03T08:28:47.056Z,58.16
2022-10-03T08:34:47.058Z,53.33
2022-10-03T08:40:47.072Z,53.90
2022-10-03T08:46:47.045Z,51.26
2022-10-03T08:52:47.560Z,49.84
2022-10-03T08:58:47.463Z,49.18
2022-10-03T09:04:47.333Z,48.24
2022-10-03T09:10:47.298Z,48.42
2022-10-03T09:16:47.350Z,45.64
2022-10-03T09:22:47.535Z,45.83
2022-10-03T09:28:47.445Z,47.17
2022-10-03T09:34:47.400Z,49.49
2022-10-03T09:40:52.630Z,45.88
2022-10-03T09:46:47.415Z,42.38
2022-10-03T09:52:47.316Z,46.78
2022-10-03T10:02:17.053Z,44.10
2022-10-03T10:08:36.992Z,41.02
2022-10-03T10:14:37.035Z,40.95
2022-10-03T10:20:37.060Z,41.34
2022-10-03T10:26:37.089Z,41.10
2022-10-03T10:32:37.136Z,40.54
2022-10-03T10:38:37.066Z,40.27
2022-10-03T10:44:37.166Z,38.71
2022-10-03T10:50:37.159Z,42.74
2022-10-03T10:56:37.370Z,42.35
2022-10-03T11:02:37.173Z,39.79
2022-10-03T11:08:37.138Z,38.01
2022-10-03T11:14:37.138Z,38.82
2022-10-03T11:20:37.164Z,37.88
2022-10-03T11:26:37.442Z,38.50
2022-10-03T11:32:37.197Z,38.11
2022-10-03T11:38:37.201Z,38.41
2022-10-03T11:44:37.202Z,39.32
2022-10-03T11:50:37.184Z,40.04
2022-10-03T11:56:37.310Z,38.69
2022-10-03T12:02:37.360Z,38.31
2022-10-03T12:08:37.188Z,36.35
2022-10-03T12:14:37.200Z,36.87
2022-10-03T12:20:37.223Z,34.71
2022-10-03T12:26:37.176Z,34.60
2022-10-03T12:32:37.194Z,34.76
2022-10-03T12:38:37.232Z,33.91
2022-10-03T12:44:37.218Z,34.53
2022-10-03T12:50:37.222Z,35.02
2022-10-03T12:56:37.204Z,34.75
2022-10-03T13:02:37.253Z,34.35
2022-10-03T13:08:37.223Z,34.50
2022-10-03T13:14:37.199Z,33.92
2022-10-03T13:20:37.232Z,35.43
2022-10-03T13:26:37.220Z,34.88
2022-10-03T13:32:37.186Z,34.14
2022-10-03T13:38:37.193Z,34.25
2022-10-03T13:44:37.242Z,34.22
2022-10-03T13:50:37.253Z,35.16
2022-10-03T13:56:37.219Z,37.08
2022-10-03T14:02:37.327Z,36.52
2022-10-03T14:08:37.293Z,37.22
2022-10-03T14:14:37.230Z,36.78
2022-10-03T14:20:37.237Z,36.90
2022-10-03T14:26:37.257Z,37.49
2022-10-03T14:32:46.806Z,37.71
2022-10-03T14:38:37.314Z,39.01
2022-10-03T14:44:37.288Z,39.06
2022-10-03T14:50:37.295Z,39.29
2022-10-03T14:56:37.339Z,41.37
2022-10-03T15:02:37.337Z,41.79
2022-10-03T15:08:37.379Z,42.80
2022-10-03T15:14:37.298Z,42.59
2022-10-03T15:20:37.319Z,42.93
2022-10-03T15:26:37.351Z,42.70
2022-10-03T15:32:37.340Z,43.74
2022-10-03T15:38:37.768Z,43.90
2022-10-03T15:44:37.749Z,47.63
2022-10-03T15:50:37.377Z,48.76
2022-10-03T15:56:37.365Z,49.28
2022-10-03T16:02:37.449Z,53.98
2022-10-03T16:08:37.859Z,52.70
2022-10-03T16:14:37.326Z,54.55
2022-10-03T16:20:37.344Z,54.74
2022-10-03T16:26:37.363Z,47.60
2022-10-03T16:32:37.371Z,49.47
2022-10-03T16:38:37.366Z,44.78
2022-10-03T16:44:37.351Z,44.65
2022-10-03T16:50:39.020Z,49.13
2022-10-03T16:56:37.388Z,52.59
2022-10-03T17:02:37.461Z,53.24
2022-10-03T17:08:42.031Z,54.30
2022-10-03T17:14:37.374Z,56.16
2022-10-03T17:20:37.375Z,46.80
2022-10-03T17:26:37.399Z,47.17
2022-10-03T17:32:37.387Z,47.56
2022-10-03T17:38:49.505Z,46.54
2022-10-03T17:44:37.370Z,49.25
2022-10-03T17:50:37.396Z,46.33
2022-10-03T17:56:37.378Z,47.54
2022-10-03T18:02:37.465Z,49.04
2022-10-03T18:08:37.668Z,50.10
2022-10-03T18:16:48.167Z,53.77
2022-10-03T18:22:48.208Z,54.46
2022-10-03T18:28:48.206Z,56.04
2022-10-03T18:34:48.194Z,59.10
2022-10-03T18:41:44.430Z,59.87
2022-10-03T18:47:44.448Z,58.21
2022-10-03T19:05:44.466Z,59.08
2022-10-03T19:11:44.745Z,59.91
2022-10-03T19:17:44.699Z,55.61
2022-10-03T19:23:44.711Z,55.08
2022-10-03T19:29:44.705Z,53.89
2022-10-03T19:35:44.713Z,57.92
2022-10-03T19:41:44.971Z,59.15
2022-10-03T19:47:44.961Z,59.43
2022-10-03T19:53:44.973Z,61.28
2022-10-03T19:59:44.959Z,62.15
2022-10-03T20:05:44.959Z,61.87
2022-10-03T20:11:45.194Z,61.37
2022-10-03T20:17:45.206Z,62.30
2022-10-03T20:23:45.167Z,65.88
2022-10-03T20:29:45.228Z,65.93
2022-10-03T20:35:45.221Z,66.76
2022-10-03T20:41:45.214Z,66.09
2022-10-03T20:47:45.212Z,66.20
2022-10-03T20:53:45.214Z,67.91
2022-10-03T20:59:45.258Z,69.31
2022-10-03T21:05:45.210Z,71.00
2022-10-03T21:11:45.220Z,70.60
2022-10-03T21:17:45.207Z,71.81
2022-10-03T21:23:45.180Z,72.01
2022-10-03T21:29:45.211Z,70.29
2022-10-03T21:35:45.198Z,70.32
2022-10-03T21:41:45.222Z,67.04
2022-10-03T21:47:45.203Z,65.90
2022-10-03T21:55:39.480Z,66.28
2022-10-03T22:01:45.306Z,64.56
2022-10-03T22:07:45.254Z,64.73
2022-10-03T22:13:45.231Z,65.30
2022-10-03T22:19:45.231Z,66.44
2022-10-03T22:25:45.256Z,68.18
2022-10-03T22:31:49.610Z,65.63
2022-10-03T22:37:49.673Z,67.30
2022-10-03T22:43:49.663Z,67.71
2022-10-03T22:49:49.656Z,68.37
2022-10-03T22:55:49.659Z,68.32
2022-10-03T23:01:49.927Z,67.50
2022-10-03T23:07:49.895Z,65.50
2022-10-03T23:13:49.870Z,66.69
2022-10-03T23:19:49.902Z,64.97
2022-10-03T23:25:49.878Z,64.95
2022-10-03T23:31:59.983Z,64.38
2022-10-03T23:37:59.954Z,66.18
2022-10-03T23:43:59.970Z,65.96
2022-10-03T23:50:00.005Z,64.99
2022-10-03T23:55:59.929Z,66.57
